createdAt,value
2022-07-28T00:01:45.813Z,100652.78
2022-07-28T00:04:15.121Z,100653.22
2022-07-28T00:06:44.128Z,100654.50
2022-07-28T00:09:12.963Z,100651.63
2022-07-28T00:11:50.268Z,100636.34
2022-07-28T00:14:23.912Z,100620.59
2022-07-28T00:16:54.248Z,100628.69
2022-07-28T00:19:23.297Z,100631.03
2022-07-28T00:21:52.040Z,100632.69
2022-07-28T00:24:20.851Z,100635.63
2022-07-28T00:26:49.581Z,100634.41
2022-07-28T00:29:18.592Z,100630.44
2022-07-28T00:31:47.463Z,100638.66
2022-07-28T00:34:18.283Z,100641.81
2022-07-28T00:36:47.167Z,100632.69
2022-07-28T00:39:16.448Z,100627.53
2022-07-28T00:41:45.473Z,100625.50
2022-07-28T00:44:14.646Z,100627.53
2022-07-28T00:46:43.696Z,100635.47
2022-07-28T00:49:12.930Z,100635.06
2022-07-28T00:51:43.261Z,100636.81
2022-07-28T00:54:12.452Z,100636.00
2022-07-28T00:56:42.607Z,100637.03
2022-07-28T00:59:11.561Z,100636.19
2022-07-28T01:01:40.633Z,100640.38
2022-07-28T01:04:09.922Z,100642.47
2022-07-28T01:07:08.035Z,100643.53
2022-07-28T01:09:49.972Z,100638.50
2022-07-28T01:12:30.503Z,100637.88
2022-07-28T01:15:08.997Z,100637.25
2022-07-28T01:17:46.523Z,100487.19
2022-07-28T01:20:19.565Z,100637.31
2022-07-28T01:23:03.199Z,100634.81
2022-07-28T01:25:49.792Z,100631.72
2022-07-28T01:28:28.520Z,100631.13
2022-07-28T01:31:04.169Z,100626.91
2022-07-28T01:33:36.662Z,100630.47
2022-07-28T01:36:10.996Z,100632.81
2022-07-28T01:38:40.865Z,100626.56
2022-07-28T01:41:14.089Z,100624.47
2022-07-28T01:43:47.222Z,100614.44
2022-07-28T01:46:19.077Z,100626.13
2022-07-28T01:48:49.151Z,100623.84
2022-07-28T01:51:18.872Z,100619.47
2022-07-28T01:53:49.398Z,100622.19
2022-07-28T01:56:20.755Z,100454.09
2022-07-28T01:58:53.479Z,100623.66
2022-07-28T02:01:26.863Z,100620.75
2022-07-28T02:03:58.030Z,100619.53
2022-07-28T02:06:27.701Z,100619.31
2022-07-28T02:08:57.824Z,100620.78
2022-07-28T02:11:44.667Z,100615.97
2022-07-28T02:14:17.876Z,100617.84
2022-07-28T02:16:51.785Z,100621.22
2022-07-28T02:19:22.747Z,100615.34
2022-07-28T02:21:52.700Z,100614.31
2022-07-28T02:24:26.677Z,100616.19
2022-07-28T02:27:01.035Z,100618.47
2022-07-28T02:29:50.415Z,100616.16
2022-07-28T02:32:28.591Z,100602.56
2022-07-28T02:35:02.679Z,100614.09
2022-07-28T02:37:36.301Z,100605.13
2022-07-28T02:40:07.992Z,100611.13
2022-07-28T02:42:38.132Z,100601.94
2022-07-28T02:45:10.350Z,100596.69
2022-07-28T02:47:45.631Z,100605.25
2022-07-28T02:50:18.134Z,100596.91
2022-07-28T02:52:48.383Z,100595.88
2022-07-28T02:55:19.100Z,100602.53
2022-07-28T02:57:52.063Z,100596.84
2022-07-28T03:00:25.869Z,100597.47
2022-07-28T03:02:57.421Z,100600.59
2022-07-28T03:05:26.995Z,100595.13
2022-07-28T03:07:57.964Z,100591.78
2022-07-28T03:10:34.244Z,100568.41
2022-07-28T03:13:04.248Z,100568.41
2022-07-28T03:15:33.530Z,100601.75
2022-07-28T03:18:05.332Z,100572.53
2022-07-28T03:20:35.099Z,100595.50
2022-07-28T03:23:04.501Z,100600.69
2022-07-28T03:25:40.823Z,100605.47
2022-07-28T03:28:15.250Z,100603.97
2022-07-28T03:30:49.831Z,100606.63
2022-07-28T03:33:20.467Z,100607.63
2022-07-28T03:35:53.159Z,100608.00
2022-07-28T03:38:25.303Z,100571.44
2022-07-28T03:40:55.680Z,100616.69
2022-07-28T03:43:27.723Z,100474.63
2022-07-28T03:45:57.096Z,100615.41
2022-07-28T03:48:32.020Z,100617.94
2022-07-28T03:51:02.534Z,100621.63
2022-07-28T03:53:31.390Z,100624.50
2022-07-28T03:56:00.168Z,100630.44
2022-07-28T03:58:29.858Z,100633.97
2022-07-28T04:00:59.592Z,100631.28
2022-07-28T04:03:42.236Z,100637.72
2022-07-28T04:06:15.524Z,100629.75
2022-07-28T04:08:45.070Z,100639.31
2022-07-28T04:11:14.161Z,100631.56
2022-07-28T04:13:43.331Z,100641.75
2022-07-28T04:16:12.171Z,100637.56
2022-07-28T04:18:41.016Z,100638.78
2022-07-28T04:21:09.837Z,100493.25
2022-07-28T04:23:40.181Z,100637.63
2022-07-28T04:26:09.048Z,100642.97
2022-07-28T04:28:37.807Z,100639.03
2022-07-28T04:31:06.663Z,100638.00
2022-07-28T04:33:35.500Z,100642.78
2022-07-28T04:36:04.435Z,100646.88
2022-07-28T04:38:33.224Z,100643.16
2022-07-28T04:41:03.679Z,100643.41
2022-07-28T04:43:32.532Z,100637.56
2022-07-28T04:46:01.461Z,100650.63
2022-07-28T04:48:30.324Z,100651.38
2022-07-28T04:50:59.208Z,100652.78
2022-07-28T04:53:28.706Z,100654.84
2022-07-28T04:55:57.781Z,100665.66
2022-07-28T04:58:27.999Z,100673.38
2022-07-28T05:00:59.956Z,100663.13
2022-07-28T05:03:32.724Z,100665.00
2022-07-28T05:06:05.258Z,100661.47
2022-07-28T05:08:33.969Z,100671.91
2022-07-28T05:11:02.861Z,100663.28
2022-07-28T05:13:34.498Z,100671.97
2022-07-28T05:16:03.983Z,100667.22
2022-07-28T05:18:32.833Z,100657.50
2022-07-28T05:21:01.792Z,100665.03
2022-07-28T05:23:30.661Z,100666.34
2022-07-28T05:25:59.623Z,100668.06
2022-07-28T05:28:28.423Z,100673.22
2022-07-28T05:30:58.937Z,100664.63
2022-07-28T05:33:31.810Z,100666.38
2022-07-28T05:36:01.008Z,100662.13
2022-07-28T05:38:30.590Z,100665.59
2022-07-28T05:41:00.157Z,100660.16
2022-07-28T05:43:28.836Z,100656.53
2022-07-28T05:45:59.276Z,100662.72
2022-07-28T05:48:28.194Z,100667.94
2022-07-28T05:50:57.048Z,100672.09
2022-07-28T05:53:26.020Z,100681.31
2022-07-28T05:55:59.746Z,100679.47
2022-07-28T05:58:30.809Z,100676.28
2022-07-28T06:01:05.088Z,100681.06
2022-07-28T06:03:41.509Z,100677.03
2022-07-28T06:06:15.637Z,100684.09
2022-07-28T06:08:47.323Z,100694.38
2022-07-28T06:11:22.245Z,100674.44
2022-07-28T06:13:52.992Z,100687.03
2022-07-28T06:16:24.206Z,100677.97
2022-07-28T06:18:53.310Z,100685.75
2022-07-28T06:21:25.353Z,100688.63
2022-07-28T06:23:54.190Z,100692.41
2022-07-28T06:26:23.771Z,100699.38
2022-07-28T06:28:53.310Z,100694.75
2022-07-28T06:31:23.633Z,100697.13
2022-07-28T06:33:52.440Z,100699.38
2022-07-28T06:36:21.248Z,100689.00
2022-07-28T06:38:50.067Z,100689.00
2022-07-28T06:41:19.925Z,100698.38
2022-07-28T06:43:48.730Z,100701.22
2022-07-28T06:46:19.769Z,100702.38
2022-07-28T06:48:50.496Z,100700.41
2022-07-28T06:51:20.442Z,100702.56
2022-07-28T06:53:50.285Z,100694.94
2022-07-28T06:56:21.417Z,100700.34
2022-07-28T06:58:50.508Z,100694.16
2022-07-28T07:01:19.312Z,100703.34
2022-07-28T07:03:49.720Z,100686.19
2022-07-28T07:06:18.605Z,100689.50
2022-07-28T07:08:48.645Z,100693.16
2022-07-28T07:11:17.639Z,100699.16
2022-07-28T07:13:46.490Z,100696.59
2022-07-28T07:16:15.705Z,100693.88
2022-07-28T07:18:44.596Z,100703.09
2022-07-28T07:21:14.895Z,100704.00
2022-07-28T07:23:43.675Z,100701.09
2022-07-28T07:26:14.111Z,100705.22
2022-07-28T07:28:43.060Z,100712.66
2022-07-28T07:31:12.022Z,100706.59
2022-07-28T07:33:40.864Z,100703.94
2022-07-28T07:36:09.763Z,100706.25
2022-07-28T07:38:40.038Z,100712.72
2022-07-28T07:41:09.015Z,100714.78
2022-07-28T07:43:37.929Z,100713.34
2022-07-28T07:46:08.580Z,100710.63
2022-07-28T07:48:37.536Z,100705.28
2022-07-28T07:51:10.717Z,100717.53
2022-07-28T07:53:45.470Z,100719.91
2022-07-28T07:56:14.866Z,100716.28
2022-07-28T07:58:43.614Z,100716.31
2022-07-28T08:01:13.813Z,100706.44
2022-07-28T08:03:43.979Z,100724.47
2022-07-28T08:06:13.049Z,100726.41
2022-07-28T08:08:48.465Z,100723.44
2022-07-28T08:11:17.598Z,100720.88
2022-07-28T08:13:46.390Z,100728.16
2022-07-28T08:16:15.376Z,100723.59
2022-07-28T08:18:45.029Z,100722.34
2022-07-28T08:21:14.907Z,100717.03
2022-07-28T08:23:43.635Z,100712.78
2022-07-28T08:26:13.912Z,100707.19
2022-07-28T08:28:42.668Z,100708.19
2022-07-28T08:31:11.977Z,100708.50
2022-07-28T08:33:53.505Z,100700.03
2022-07-28T08:36:23.665Z,100690.38
2022-07-28T08:38:52.346Z,100685.44
2022-07-28T08:41:33.820Z,100670.59
2022-07-28T08:44:05.172Z,100684.50
2022-07-28T08:46:37.758Z,100681.84
2022-07-28T08:49:09.765Z,100682.56
2022-07-28T08:51:39.587Z,100676.31
2022-07-28T08:54:09.095Z,100684.44
2022-07-28T08:56:47.710Z,100653.25
2022-07-28T08:59:17.128Z,100688.50
2022-07-28T09:01:47.185Z,100692.84
2022-07-28T09:04:17.478Z,100678.41
2022-07-28T09:06:47.017Z,100694.59
2022-07-28T09:09:16.524Z,100692.94
2022-07-28T09:11:46.775Z,100693.97
2022-07-28T09:14:15.819Z,100692.19
2022-07-28T09:16:44.953Z,100692.31
2022-07-28T09:19:13.703Z,100693.53
2022-07-28T09:21:44.650Z,100669.84
2022-07-28T09:24:34.235Z,100693.13
2022-07-28T09:27:08.122Z,100693.81
2022-07-28T09:29:37.751Z,100693.91
2022-07-28T09:32:07.816Z,100702.22
2022-07-28T09:34:45.485Z,100708.63
2022-07-28T09:37:24.943Z,100704.78
2022-07-28T09:39:59.487Z,100702.56
2022-07-28T09:42:47.260Z,100679.75
2022-07-28T09:45:24.302Z,100710.00
2022-07-28T09:48:11.315Z,100700.53
2022-07-28T09:50:41.723Z,100709.47
2022-07-28T09:53:23.173Z,100700.31
2022-07-28T09:56:00.613Z,100693.53
2022-07-28T09:58:32.682Z,100701.13
2022-07-28T10:01:09.680Z,100700.47
2022-07-28T10:03:43.099Z,100685.91
2022-07-28T10:06:16.879Z,100684.72
2022-07-28T10:08:48.053Z,100674.84
2022-07-28T10:11:18.566Z,100677.53
2022-07-28T10:13:57.305Z,100672.34
2022-07-28T10:16:27.675Z,100670.91
2022-07-28T10:18:57.490Z,100665.59
2022-07-28T10:21:27.775Z,100665.38
2022-07-28T10:23:58.254Z,100649.03
2022-07-28T10:26:32.932Z,100663.28
2022-07-28T10:29:07.532Z,100534.66
2022-07-28T10:31:40.507Z,100666.09
2022-07-28T10:34:16.070Z,100659.09
2022-07-28T10:36:46.011Z,100650.38
2022-07-28T10:39:19.920Z,100663.72
2022-07-28T10:41:49.227Z,100663.72
2022-07-28T10:44:21.200Z,100648.28
2022-07-28T10:46:51.312Z,100660.16
2022-07-28T10:49:21.410Z,100662.88
2022-07-28T10:52:02.413Z,100657.41
2022-07-28T10:54:44.623Z,100653.22
2022-07-28T10:57:18.023Z,100647.03
2022-07-28T11:00:12.914Z,100649.03
2022-07-28T11:02:48.884Z,100617.34
2022-07-28T11:05:41.913Z,100650.19
2022-07-28T11:08:29.011Z,100642.59
2022-07-28T11:11:07.460Z,100637.84
2022-07-28T11:13:41.171Z,100635.22
2022-07-28T11:16:22.883Z,100639.13
2022-07-28T11:19:40.102Z,100633.00
2022-07-28T11:22:25.187Z,100620.19
2022-07-28T11:25:19.756Z,100618.84
2022-07-28T11:28:08.283Z,100617.91
2022-07-28T11:30:53.636Z,100634.53
2022-07-28T11:33:25.227Z,100621.63
2022-07-28T11:35:57.332Z,100620.38
2022-07-28T11:38:26.214Z,100615.22
2022-07-28T11:40:57.623Z,100616.03
2022-07-28T11:43:38.888Z,100614.38
2022-07-28T11:46:24.960Z,100622.41
2022-07-28T11:49:25.242Z,100626.78
2022-07-28T11:52:17.596Z,100628.28
2022-07-28T11:54:56.728Z,100636.16
2022-07-28T11:57:29.667Z,100634.72
2022-07-28T12:00:01.154Z,100637.78
2022-07-28T12:02:32.360Z,100640.09
2022-07-28T12:05:09.637Z,100639.19
2022-07-28T12:07:41.564Z,100636.16
2022-07-28T12:13:29.213Z,100598.72
2022-07-28T12:15:58.693Z,100639.66
2022-07-28T12:18:27.581Z,100638.22
2022-07-28T12:21:03.084Z,100640.13
2022-07-28T12:23:45.897Z,100644.59
2022-07-28T12:26:40.954Z,100635.50
2022-07-28T12:29:13.797Z,100628.66
2022-07-28T12:31:54.437Z,100626.16
2022-07-28T12:34:28.907Z,100620.00
2022-07-28T12:37:03.306Z,100591.81
2022-07-28T12:39:34.617Z,100605.66
2022-07-28T12:42:05.490Z,100603.41
2022-07-28T12:44:35.860Z,100600.53
2022-07-28T12:47:06.611Z,100604.41
2022-07-28T12:49:36.748Z,100613.53
2022-07-28T12:52:22.553Z,100628.31
2022-07-28T12:54:54.934Z,100633.38
2022-07-28T12:57:48.817Z,100629.66
2022-07-28T13:00:23.619Z,100635.91
2022-07-28T13:02:56.564Z,100637.16
2022-07-28T13:05:33.067Z,100632.25
2022-07-28T13:08:05.858Z,100632.66
2022-07-28T13:10:35.063Z,100629.69
2022-07-28T13:13:06.897Z,100631.22
2022-07-28T13:15:35.851Z,100628.44
2022-07-28T13:18:05.283Z,100632.97
2022-07-28T13:20:48.968Z,100637.81
2022-07-28T13:23:19.518Z,100629.59
2022-07-28T13:25:48.454Z,100632.16
2022-07-28T13:28:28.027Z,100509.50
2022-07-28T13:30:57.291Z,100639.03
2022-07-28T13:33:27.170Z,100646.03
2022-07-28T13:35:57.431Z,100641.09
2022-07-28T13:38:27.732Z,100654.31
2022-07-28T13:40:56.613Z,100659.19
2022-07-28T13:43:35.711Z,100658.28
2022-07-28T13:46:05.570Z,100666.22
2022-07-28T13:48:36.167Z,100664.72
2022-07-28T13:51:05.199Z,100664.91
2022-07-28T13:53:39.467Z,100666.69
2022-07-28T13:56:09.515Z,100674.13
2022-07-28T13:58:38.902Z,100673.19
2022-07-28T14:01:12.652Z,100679.19
2022-07-28T14:03:57.841Z,100688.97
2022-07-28T14:06:27.206Z,100680.47
2022-07-28T14:08:57.819Z,100681.91
2022-07-28T14:11:27.301Z,100672.09
2022-07-28T14:13:56.290Z,100668.09
2022-07-28T14:16:25.572Z,100612.09
2022-07-28T14:18:54.468Z,100645.38
2022-07-28T14:21:23.655Z,100632.28
2022-07-28T14:23:52.549Z,100641.00
2022-07-28T14:26:35.317Z,100648.09
2022-07-28T14:29:11.787Z,100594.19
2022-07-28T14:31:40.900Z,100642.63
2022-07-28T14:34:10.424Z,100629.91
2022-07-28T14:36:39.440Z,100637.19
2022-07-28T14:39:12.464Z,100667.09
2022-07-28T14:41:44.613Z,100668.25
2022-07-28T14:44:15.412Z,100622.78
2022-07-28T14:46:52.821Z,100593.44
2022-07-28T14:49:21.699Z,100631.09
2022-07-28T14:51:50.721Z,100651.84
2022-07-28T14:54:19.658Z,100651.28
2022-07-28T14:56:50.098Z,100641.91
2022-07-28T14:59:18.899Z,100634.47
2022-07-28T15:01:48.874Z,100631.50
2022-07-28T15:04:18.545Z,100639.50
2022-07-28T15:06:48.302Z,100643.91
2022-07-28T15:09:17.435Z,100656.84
2022-07-28T15:11:47.568Z,100660.41
2022-07-28T15:14:21.141Z,100648.72
2022-07-28T15:16:51.751Z,100646.66
2022-07-28T15:19:20.509Z,100646.78
2022-07-28T15:21:49.332Z,100639.97
2022-07-28T15:24:19.561Z,100646.19
2022-07-28T15:26:48.424Z,100649.13
2022-07-28T15:29:19.971Z,100653.13
2022-07-28T15:31:50.532Z,100640.63
2022-07-28T15:34:19.752Z,100641.44
2022-07-28T15:36:48.930Z,100647.25
2022-07-28T15:39:17.767Z,100637.81
2022-07-28T15:41:47.627Z,100647.78
2022-07-28T15:44:22.389Z,100631.97
2022-07-28T15:46:55.289Z,100626.63
2022-07-28T15:49:24.196Z,100636.28
2022-07-28T15:51:53.028Z,100634.09
2022-07-28T15:54:21.784Z,100636.00
2022-07-28T15:56:50.581Z,100637.59
2022-07-28T15:59:20.724Z,100630.91
2022-07-28T16:01:49.570Z,100629.97
2022-07-28T16:04:18.853Z,100634.53
2022-07-28T16:07:05.236Z,100636.44
2022-07-28T16:09:46.429Z,100627.88
2022-07-28T16:12:15.975Z,100627.03
2022-07-28T16:14:46.654Z,100614.63
2022-07-28T16:17:15.766Z,100613.03
2022-07-28T16:19:49.899Z,100610.72
2022-07-28T16:22:20.271Z,100607.19
2022-07-28T16:24:51.024Z,100612.59
2022-07-28T16:27:19.847Z,100607.94
2022-07-28T16:29:51.088Z,100611.03
2022-07-28T16:32:19.961Z,100616.63
2022-07-28T16:34:49.405Z,100614.97
2022-07-28T16:37:19.782Z,100609.94
2022-07-28T16:39:49.559Z,100567.03
2022-07-28T16:42:18.616Z,100605.22
2022-07-28T16:44:48.915Z,100603.03
2022-07-28T16:47:19.388Z,100605.28
2022-07-28T16:49:48.175Z,100596.72
2022-07-28T16:52:17.194Z,100562.69
2022-07-28T16:54:45.951Z,100603.69
2022-07-28T16:57:16.533Z,100602.66
2022-07-28T16:59:48.491Z,100603.75
2022-07-28T17:02:20.268Z,100594.34
2022-07-28T17:04:49.373Z,100597.69
2022-07-28T17:07:18.732Z,100603.53
2022-07-28T17:09:47.602Z,100613.25
2022-07-28T17:12:16.394Z,100612.47
2022-07-28T17:14:45.189Z,100615.88
2022-07-28T17:17:13.962Z,100612.09
2022-07-28T17:19:46.611Z,100610.56
2022-07-28T17:22:16.228Z,100618.97
2022-07-28T17:24:44.903Z,100620.41
2022-07-28T17:30:02.650Z,100608.66
2022-07-28T17:32:31.539Z,100612.53
2022-07-28T17:35:01.935Z,100622.22
2022-07-28T17:37:31.694Z,100610.09
2022-07-28T17:40:01.240Z,100614.81
2022-07-28T17:42:34.827Z,100614.63
2022-07-28T17:45:03.630Z,100600.56
2022-07-28T17:47:36.179Z,100613.56
2022-07-28T17:50:10.028Z,100614.94
2022-07-28T17:52:38.828Z,100616.94
2022-07-28T17:55:25.880Z,100599.59
2022-07-28T17:57:57.122Z,100615.84
2022-07-28T18:00:25.845Z,100625.25
2022-07-28T18:02:54.646Z,100632.44
2022-07-28T18:05:24.830Z,100620.88
2022-07-28T18:07:59.088Z,100631.09
2022-07-28T18:10:28.361Z,100631.94
2022-07-28T18:12:57.255Z,100631.72
2022-07-28T18:15:26.081Z,100633.09
2022-07-28T18:17:56.168Z,100634.19
2022-07-28T18:20:26.759Z,100635.84
2022-07-28T18:22:57.563Z,100628.72
2022-07-28T18:25:26.704Z,100640.06
2022-07-28T18:27:55.576Z,100642.00
2022-07-28T18:30:25.055Z,100635.09
2022-07-28T18:32:54.183Z,100632.94
2022-07-28T18:35:24.132Z,100617.75
2022-07-28T18:37:54.431Z,100632.06
2022-07-28T18:40:24.148Z,100651.91
2022-07-28T18:42:53.300Z,100656.88
2022-07-28T18:45:22.139Z,100658.00
2022-07-28T18:47:53.405Z,100657.72
2022-07-28T18:50:27.877Z,100663.22
2022-07-28T18:53:02.069Z,100667.06
2022-07-28T18:55:30.938Z,100679.72
2022-07-28T18:58:00.726Z,100680.78
2022-07-28T19:00:29.494Z,100688.50
2022-07-28T19:02:58.381Z,100695.06
2022-07-28T19:05:27.358Z,100695.84
2022-07-28T19:08:07.599Z,100699.41
2022-07-28T19:10:36.864Z,100691.97
2022-07-28T19:13:05.855Z,100699.38
2022-07-28T19:15:41.417Z,100699.00
2022-07-28T19:18:12.046Z,100704.47
2022-07-28T19:20:41.669Z,100705.78
2022-07-28T19:23:14.129Z,100714.22
2022-07-28T19:25:45.153Z,100718.84
2022-07-28T19:28:14.099Z,100719.28
2022-07-28T19:30:44.018Z,100720.34
2022-07-28T19:33:18.644Z,100723.34
2022-07-28T19:35:48.023Z,100727.41
2022-07-28T19:38:18.209Z,100733.66
2022-07-28T19:40:47.159Z,100736.09
2022-07-28T19:43:15.870Z,100728.91
2022-07-28T19:45:44.818Z,100728.88
2022-07-28T19:48:13.628Z,100736.75
2022-07-28T19:50:49.963Z,100745.13
2022-07-28T19:53:25.061Z,100751.09
2022-07-28T19:55:55.131Z,100752.63
2022-07-28T19:58:24.665Z,100750.09
2022-07-28T20:00:54.029Z,100756.56
2022-07-28T20:04:00.966Z,100727.88
2022-07-28T20:06:14.684Z,100764.38
2022-07-28T20:08:44.910Z,100764.56
2022-07-28T20:11:14.882Z,100766.91
2022-07-28T20:13:43.700Z,100767.94
2022-07-28T20:16:12.540Z,100764.28
2022-07-28T20:18:41.282Z,100767.72
2022-07-28T20:21:10.305Z,100779.53
2022-07-28T20:23:41.147Z,100769.28
2022-07-28T20:26:11.455Z,100783.41
2022-07-28T20:28:40.218Z,100782.56
2022-07-28T20:31:13.576Z,100769.44
2022-07-28T20:33:45.264Z,100784.06
2022-07-28T20:36:14.084Z,100775.16
2022-07-28T20:38:42.840Z,100776.91
2022-07-28T20:41:13.262Z,100781.34
2022-07-28T20:43:42.157Z,100783.44
2022-07-28T20:46:11.005Z,100783.06
2022-07-28T20:48:39.988Z,100783.22
2022-07-28T20:51:08.763Z,100777.41
2022-07-28T20:53:37.647Z,100784.06
2022-07-28T20:56:06.999Z,100792.75
2022-07-28T20:58:37.416Z,100805.22
2022-07-28T21:01:06.302Z,100803.47
2022-07-28T21:03:35.259Z,100800.03
2022-07-28T21:06:04.043Z,100800.50
2022-07-28T21:08:33.169Z,100799.19
2022-07-28T21:11:02.048Z,100797.00
2022-07-28T21:13:31.703Z,100800.56
2022-07-28T21:16:01.966Z,100797.13
2022-07-28T21:18:30.727Z,100801.72
2022-07-28T21:20:59.719Z,100810.00
2022-07-28T21:23:28.506Z,100816.53
2022-07-28T21:25:57.357Z,100812.50
2022-07-28T21:28:43.383Z,100812.50
2022-07-28T21:31:13.719Z,100799.22
2022-07-28T21:33:42.499Z,100802.41
2022-07-28T21:36:11.356Z,100794.66
2022-07-28T21:38:40.143Z,100796.09
2022-07-28T21:41:09.205Z,100786.47
2022-07-28T21:43:37.999Z,100791.94
2022-07-28T21:46:06.911Z,100794.66
2022-07-28T21:48:37.212Z,100786.94
2022-07-28T21:51:16.792Z,100773.16
2022-07-28T21:53:51.493Z,100770.41
2022-07-28T21:56:21.036Z,100773.16
2022-07-28T21:58:49.849Z,100780.75
2022-07-28T22:01:19.448Z,100782.47
2022-07-28T22:03:49.992Z,100764.25
2022-07-28T22:06:18.879Z,100771.75
2022-07-28T22:08:50.335Z,100726.25
2022-07-28T22:11:19.392Z,100768.50
2022-07-28T22:13:48.208Z,100766.47
2022-07-28T22:16:17.215Z,100770.38
2022-07-28T22:18:46.116Z,100777.25
2022-07-28T22:21:16.548Z,100781.78
2022-07-28T22:23:45.320Z,100785.56
2022-07-28T22:26:14.146Z,100798.25
2022-07-28T22:28:42.971Z,100790.84
2022-07-28T22:31:11.776Z,100804.94
2022-07-28T22:33:40.670Z,100796.81
2022-07-28T22:36:10.834Z,100773.16
2022-07-28T22:38:41.418Z,100809.34
2022-07-28T22:41:11.259Z,100809.97
2022-07-28T22:43:39.991Z,100817.69
2022-07-28T22:46:11.001Z,100807.97
2022-07-28T22:48:41.087Z,100788.34
2022-07-28T22:51:12.034Z,100805.22
2022-07-28T22:53:42.715Z,100801.78
2022-07-28T22:56:12.116Z,100797.03
2022-07-28T22:58:41.351Z,100798.31
2022-07-28T23:01:10.242Z,100800.06
2022-07-28T23:03:39.521Z,100789.59
2022-07-28T23:06:08.686Z,100795.81
2022-07-28T23:08:37.753Z,100801.16
2022-07-28T23:11:08.246Z,100807.06
2022-07-28T23:13:37.121Z,100805.91
2022-07-28T23:16:08.531Z,100797.84
2022-07-28T23:18:39.744Z,100781.81
2022-07-28T23:21:08.802Z,100781.03
2022-07-28T23:23:37.825Z,100786.75
2022-07-28T23:26:08.152Z,100779.28
2022-07-28T23:28:40.745Z,100776.97
2022-07-28T23:31:09.601Z,100775.75
2022-07-28T23:33:54.283Z,100786.81
2022-07-28T23:36:26.898Z,100776.97
2022-07-28T23:38:57.794Z,100778.47
2022-07-28T23:41:29.113Z,100766.56
2022-07-28T23:43:57.995Z,100776.63
2022-07-28T23:46:26.783Z,100775.97
2022-07-28T23:48:55.760Z,100785.16
2022-07-28T23:51:39.246Z,100786.38
2022-07-28T23:54:15.753Z,100748.50
2022-07-28T23:56:46.331Z,100779.00
2022-07-28T23:59:15.138Z,100803.25
